Washington, DC (20202)

11:24 PM EST on November 23, 2014 (GMT -0500)
Aurora Hills | Change Station
CLOSE
Current Station
Personal Weather Station
Location: Arlington, VA
Elevation: 131 ft
Nearby Weather Stations

Elev 131 ft 38.85 °N, 77.06 °W | Updated 28 seconds ago

Light Rain
Light Rain
52.3 °F
Feels Like 52.3 °F
N
0.0
Wind Variable Wind from SSW
Gusts 1.0 mph

Today
High -- | Low -- °F
--% Chance of Precip.
Yesterday
High -- | Low -- °F
Precip. -- in
6:59 AM 4:49 PM
Waxing Crescent, 3% visible
Pressure 29.84 in
Visibility 5.0 miles
Clouds Scattered Clouds 900 ft
Mostly Cloudy 2800 ft
Overcast 3700 ft
Dew Point 51 °F
Humidity 95%
Rainfall 0.05 in
Snow Depth Not available.
UV 0 out of 12
Pollen .10 out of 12
Air Quality Not available.
Flu Activity Not available.
SPECI KDCA 240409Z 00000KT 5SM -RA SCT009 BKN028 OVC037 12/09 A2984 RMK AO2 PRESFR P0001

More Conditions Fewer Conditions

Pressure 29.84 in
Visibility 5.0 miles
Clouds Scattered Clouds 900 ft
Mostly Cloudy 2800 ft
Overcast 3700 ft
Dew Point 51 °F
Humidity 95%
Rainfall 0.05 in
Snow Depth Not available.
UV 0 out of 12
Pollen .10 out of 12
Air Quality Not available.
Flu Activity Not available.
SPECI KDCA 240409Z 00000KT 5SM -RA SCT009 BKN028 OVC037 12/09 A2984 RMK AO2 PRESFR P0001

More Conditions Fewer Conditions

10-Day Weather Forecast

Almanac

Astronomy

Nov. 23, 2014 Rise Set
Actual Time
Civil Twilight
Nautical Twilight
Astronomical Twilight
Moon
Length of Visible Light
Length of Day
Tomorrow will be .
, % of the Moon is Illuminated

Today's Extremes

State Highs State Lows

Community

WunderPhotos

Upload Photos

1,773,266 photos uploaded!

WunderBlogs® & News

Nearby

Air Quality

  Air Quality AQ Index Pollutant
Not available.

Snow Depth

Station Depth Elevation

Earthquake Activity

City Distance Mag. Time & Date
Minimum magnitude displayed is 2.5.

Coastal Water Temperatures

Place Temperature

Nearby Weather Stations